Omak, WA (98841)

7:55 PM PST on December 08, 2016 (GMT -0800)
Wenatchee Valley College Omak | | Change Station

Elev 846 ft 48.41 °N, 119.53 °W | Updated 1 minute ago

Overcast
Overcast
23.9 °F
Feels Like 14 °F
N
9.6
Wind Variable Wind from NNW
Gusts 17.0 mph

Today
High -- | Low -- °F
--% Chance of Precip.
Yesterday
High -- | Low -- °F
Precip. -- in
Pressure 30.27 in
Visibility 10.0 miles
Clouds Overcast 10000 ft
Windchill 14 °F
Dew Point 12 °F
Humidity 59%
Rainfall 0.00 in
Snow Depth Not available.
7:37 AM 4:03 PM
Waxing Gibbous, 70% visible
METAR KOMK 090253Z AUTO 35013KT 10SM OVC100 M07/M13 A3020 RMK AO2 SLP250 T10671133 57012
Pressure 30.27 in
Visibility 10.0 miles
Clouds Overcast 10000 ft
Windchill 14 °F
Dew Point 12 °F
Humidity 59%
Rainfall 0.00 in
Snow Depth Not available.
7:37 AM 4:03 PM
Waxing Gibbous, 70% visible
METAR KOMK 090253Z AUTO 35013KT 10SM OVC100 M07/M13 A3020 RMK AO2 SLP250 T10671133 57012

10-Day Weather Forecast

Almanac

Astronomy

Dec. 08, 2016 Rise Set
Actual Time
Civil Twilight
Nautical Twilight
Astronomical Twilight
Moon
Length of Visible Light
Length of Day
Tomorrow will be .
, % of the Moon is Illuminated

Today's Extremes

State Highs State Lows

Community

WunderPhotos

Upload Photos

1,956,370 photos uploaded!

WunderBlog® & News

Nearby

Air Quality

  Air Quality AQ Index Pollutant
Not available.

Snow Depth

Station Depth Elevation

Earthquake Activity

City Distance Mag. Time & Date
Minimum magnitude displayed is 2.5.

Coastal Water Temperatures

Place Temperature

Stations

Nearby Weather Stations

Station Location Temp. Windchill Dew Point Humidity Wind Precip. Elev Updated Type
                   

Watches & Warnings

There are currently no watches in effect.